sensor_id;sensor_type;location;lat;lon;timestamp;temperature;humidity
5697;DHT22;2873;50.966;7.210;2022-09-16T00:01:19;13.40;99.90
5697;DHT22;2873;50.966;7.210;2022-09-16T00:03:46;13.30;99.90
5697;DHT22;2873;50.966;7.210;2022-09-16T00:06:20;13.30;99.90
5697;DHT22;2873;50.966;7.210;2022-09-16T00:08:50;13.30;99.90
5697;DHT22;2873;50.966;7.210;2022-09-16T00:11:17;13.30;99.90
5697;DHT22;2873;50.966;7.210;2022-09-16T00:13:42;13.30;99.90
5697;DHT22;2873;50.966;7.210;2022-09-16T00:16:10;13.30;99.90
5697;DHT22;2873;50.966;7.210;2022-09-16T00:18:36;13.30;99.90
5697;DHT22;2873;50.966;7.210;2022-09-16T00:21:05;13.30;99.90
5697;DHT22;2873;50.966;7.210;2022-09-16T00:23:31;13.30;99.90
5697;DHT22;2873;50.966;7.210;2022-09-16T00:25:56;13.30;99.90
5697;DHT22;2873;50.966;7.210;2022-09-16T00:28:22;13.30;99.90
5697;DHT22;2873;50.966;7.210;2022-09-16T00:30:48;13.30;99.90
5697;DHT22;2873;50.966;7.210;2022-09-16T00:33:14;13.40;99.90
5697;DHT22;2873;50.966;7.210;2022-09-16T00:35:40;13.40;99.90
5697;DHT22;2873;50.966;7.210;2022-09-16T00:38:06;13.40;99.90
5697;DHT22;2873;50.966;7.210;2022-09-16T00:40:32;13.40;99.90
5697;DHT22;2873;50.966;7.210;2022-09-16T00:42:58;13.40;99.90
5697;DHT22;2873;50.966;7.210;2022-09-16T00:45:26;13.40;99.90
5697;DHT22;2873;50.966;7.210;2022-09-16T00:47:58;13.50;99.90
5697;DHT22;2873;50.966;7.210;2022-09-16T00:50:43;13.40;99.90
5697;DHT22;2873;50.966;7.210;2022-09-16T00:53:13;13.40;99.90
5697;DHT22;2873;50.966;7.210;2022-09-16T00:55:41;13.40;99.90
5697;DHT22;2873;50.966;7.210;2022-09-16T01:01:20;13.30;99.90
5697;DHT22;2873;50.966;7.210;2022-09-16T01:03:53;13.30;99.90
5697;DHT22;2873;50.966;7.210;2022-09-16T01:06:20;13.30;99.90
5697;DHT22;2873;50.966;7.210;2022-09-16T01:08:49;13.30;99.90
5697;DHT22;2873;50.966;7.210;2022-09-16T01:11:15;13.20;99.90
5697;DHT22;2873;50.966;7.210;2022-09-16T01:13:41;13.20;99.90
5697;DHT22;2873;50.966;7.210;2022-09-16T01:16:28;13.20;99.90
5697;DHT22;2873;50.966;7.210;2022-09-16T01:27:43;13.20;99.90
5697;DHT22;2873;50.966;7.210;2022-09-16T01:33:03;13.10;99.90
5697;DHT22;2873;50.966;7.210;2022-09-16T01:35:38;13.10;99.90
5697;DHT22;2873;50.966;7.210;2022-09-16T01:41:17;13.10;99.90
5697;DHT22;2873;50.966;7.210;2022-09-16T01:43:50;13.10;99.90
5697;DHT22;2873;50.966;7.210;2022-09-16T01:46:47;13.10;99.90
5697;DHT22;2873;50.966;7.210;2022-09-16T01:55:01;13.10;99.90
5697;DHT22;2873;50.966;7.210;2022-09-16T01:57:33;13.20;99.90
5697;DHT22;2873;50.966;7.210;2022-09-16T02:00:08;13.10;99.90
5697;DHT22;2873;50.966;7.210;2022-09-16T02:02:59;13.20;99.90
5697;DHT22;2873;50.966;7.210;2022-09-16T02:08:13;13.10;99.90
5697;DHT22;2873;50.966;7.210;2022-09-16T02:10:44;13.10;99.90
5697;DHT22;2873;50.966;7.210;2022-09-16T02:13:22;13.10;99.90
5697;DHT22;2873;50.966;7.210;2022-09-16T02:15:50;13.10;99.90
5697;DHT22;2873;50.966;7.210;2022-09-16T02:18:21;13.20;99.90
5697;DHT22;2873;50.966;7.210;2022-09-16T02:20:48;13.20;99.90
5697;DHT22;2873;50.966;7.210;2022-09-16T02:23:22;13.30;99.90
5697;DHT22;2873;50.966;7.210;2022-09-16T02:25:49;13.30;99.90
5697;DHT22;2873;50.966;7.210;2022-09-16T02:28:20;13.30;99.90
5697;DHT22;2873;50.966;7.210;2022-09-16T02:30:52;13.30;99.90
5697;DHT22;2873;50.966;7.210;2022-09-16T02:33:19;13.40;99.90
5697;DHT22;2873;50.966;7.210;2022-09-16T02:35:46;13.40;99.90
5697;DHT22;2873;50.966;7.210;2022-09-16T02:38:27;13.50;99.90
5697;DHT22;2873;50.966;7.210;2022-09-16T02:40:58;13.50;99.90
5697;DHT22;2873;50.966;7.210;2022-09-16T02:43:25;13.50;99.90
5697;DHT22;2873;50.966;7.210;2022-09-16T02:46:07;13.50;99.90
5697;DHT22;2873;50.966;7.210;2022-09-16T02:56:58;13.40;99.90
5697;DHT22;2873;50.966;7.210;2022-09-16T02:59:23;13.30;99.90
5697;DHT22;2873;50.966;7.210;2022-09-16T03:01:50;13.40;99.90
5697;DHT22;2873;50.966;7.210;2022-09-16T03:04:17;13.40;99.90
5697;DHT22;2873;50.966;7.210;2022-09-16T03:06:43;13.40;99.90
5697;DHT22;2873;50.966;7.210;2022-09-16T03:09:11;13.50;99.90
5697;DHT22;2873;50.966;7.210;2022-09-16T03:17:07;13.50;99.90
5697;DHT22;2873;50.966;7.210;2022-09-16T03:28:16;13.60;99.90
5697;DHT22;2873;50.966;7.210;2022-09-16T03:33:24;13.50;99.90
5697;DHT22;2873;50.966;7.210;2022-09-16T03:35:51;13.50;99.90
5697;DHT22;2873;50.966;7.210;2022-09-16T03:38:22;13.50;99.90
5697;DHT22;2873;50.966;7.210;2022-09-16T03:40:48;13.50;99.90
5697;DHT22;2873;50.966;7.210;2022-09-16T03:43:16;13.50;99.90
5697;DHT22;2873;50.966;7.210;2022-09-16T03:45:42;13.50;99.90
5697;DHT22;2873;50.966;7.210;2022-09-16T03:48:09;13.50;99.90
5697;DHT22;2873;50.966;7.210;2022-09-16T03:50:35;13.50;99.90
5697;DHT22;2873;50.966;7.210;2022-09-16T03:53:00;13.50;99.90
5697;DHT22;2873;50.966;7.210;2022-09-16T03:55:26;13.60;99.90
5697;DHT22;2873;50.966;7.210;2022-09-16T03:57:53;13.60;99.90
5697;DHT22;2873;50.966;7.210;2022-09-16T04:00:18;13.50;99.90
5697;DHT22;2873;50.966;7.210;2022-09-16T04:02:44;13.50;99.90
5697;DHT22;2873;50.966;7.210;2022-09-16T04:05:09;13.50;99.90
5697;DHT22;2873;50.966;7.210;2022-09-16T04:07:35;13.50;99.90
5697;DHT22;2873;50.966;7.210;2022-09-16T04:10:01;13.40;99.90
5697;DHT22;2873;50.966;7.210;2022-09-16T04:12:27;13.40;99.90
5697;DHT22;2873;50.966;7.210;2022-09-16T04:14:53;13.30;99.90
5697;DHT22;2873;50.966;7.210;2022-09-16T04:17:18;13.30;99.90
5697;DHT22;2873;50.966;7.210;2022-09-16T04:19:44;13.30;99.90
5697;DHT22;2873;50.966;7.210;2022-09-16T04:22:09;13.30;99.90
5697;DHT22;2873;50.966;7.210;2022-09-16T04:24:35;13.30;99.90
5697;DHT22;2873;50.966;7.210;2022-09-16T04:27:01;13.30;99.90
5697;DHT22;2873;50.966;7.210;2022-09-16T04:29:26;13.20;99.90
5697;DHT22;2873;50.966;7.210;2022-09-16T04:31:53;13.20;99.90
5697;DHT22;2873;50.966;7.210;2022-09-16T04:34:19;13.10;99.90
5697;DHT22;2873;50.966;7.210;2022-09-16T04:36:44;13.00;99.90
5697;DHT22;2873;50.966;7.210;2022-09-16T04:39:10;13.10;99.90
5697;DHT22;2873;50.966;7.210;2022-09-16T04:41:37;13.10;99.90
5697;DHT22;2873;50.966;7.210;2022-09-16T04:44:03;13.10;99.90
5697;DHT22;2873;50.966;7.210;2022-09-16T04:46:30;13.10;99.90
5697;DHT22;2873;50.966;7.210;2022-09-16T04:48:57;13.00;99.90
5697;DHT22;2873;50.966;7.210;2022-09-16T04:51:24;13.00;99.90
5697;DHT22;2873;50.966;7.210;2022-09-16T04:53:52;13.10;99.90
5697;DHT22;2873;50.966;7.210;2022-09-16T04:56:21;13.10;99.90
5697;DHT22;2873;50.966;7.210;2022-09-16T04:58:49;13.10;99.90
5697;DHT22;2873;50.966;7.210;2022-09-16T05:01:20;13.10;99.90
5697;DHT22;2873;50.966;7.210;2022-09-16T05:03:47;13.10;99.90
5697;DHT22;2873;50.966;7.210;2022-09-16T05:06:16;13.10;99.90
5697;DHT22;2873;50.966;7.210;2022-09-16T05:08:42;13.00;99.90
5697;DHT22;2873;50.966;7.210;2022-09-16T05:11:10;13.00;99.90
5697;DHT22;2873;50.966;7.210;2022-09-16T05:13:36;13.10;99.90
5697;DHT22;2873;50.966;7.210;2022-09-16T05:16:13;13.10;99.90
5697;DHT22;2873;50.966;7.210;2022-09-16T05:18:40;13.10;99.90
5697;DHT22;2873;50.966;7.210;2022-09-16T05:21:08;13.10;99.90
5697;DHT22;2873;50.966;7.210;2022-09-16T05:23:34;13.10;99.90
5697;DHT22;2873;50.966;7.210;2022-09-16T05:26:15;13.20;99.90
5697;DHT22;2873;50.966;7.210;2022-09-16T05:28:41;13.20;99.90
5697;DHT22;2873;50.966;7.210;2022-09-16T05:33:37;13.20;99.90
5697;DHT22;2873;50.966;7.210;2022-09-16T05:36:04;13.20;99.90
5697;DHT22;2873;50.966;7.210;2022-09-16T05:38:30;13.20;99.90
5697;DHT22;2873;50.966;7.210;2022-09-16T05:41:00;13.20;99.90
5697;DHT22;2873;50.966;7.210;2022-09-16T05:43:26;13.20;99.90
5697;DHT22;2873;50.966;7.210;2022-09-16T05:45:53;13.10;99.90
5697;DHT22;2873;50.966;7.210;2022-09-16T05:48:18;13.10;99.90
5697;DHT22;2873;50.966;7.210;2022-09-16T05:51:04;13.20;99.90
5697;DHT22;2873;50.966;7.210;2022-09-16T05:53:32;13.30;99.90
5697;DHT22;2873;50.966;7.210;2022-09-16T05:56:02;13.30;99.90
5697;DHT22;2873;50.966;7.210;2022-09-16T05:58:29;13.30;99.90
5697;DHT22;2873;50.966;7.210;2022-09-16T06:00:59;13.40;99.90
5697;DHT22;2873;50.966;7.210;2022-09-16T06:03:26;13.50;99.90
5697;DHT22;2873;50.966;7.210;2022-09-16T06:05:58;13.50;99.90
5697;DHT22;2873;50.966;7.210;2022-09-16T06:08:23;13.50;99.90
5697;DHT22;2873;50.966;7.210;2022-09-16T06:10:49;13.60;99.90
5697;DHT22;2873;50.966;7.210;2022-09-16T06:13:14;13.70;99.90
5697;DHT22;2873;50.966;7.210;2022-09-16T06:15:48;13.70;99.90
5697;DHT22;2873;50.966;7.210;2022-09-16T06:18:13;13.70;99.90
5697;DHT22;2873;50.966;7.210;2022-09-16T06:20:40;13.70;99.90
5697;DHT22;2873;50.966;7.210;2022-09-16T06:23:06;13.70;99.90
5697;DHT22;2873;50.966;7.210;2022-09-16T06:25:31;13.80;99.90
5697;DHT22;2873;50.966;7.210;2022-09-16T06:27:58;13.80;99.90
5697;DHT22;2873;50.966;7.210;2022-09-16T06:30:23;13.80;99.90
5697;DHT22;2873;50.966;7.210;2022-09-16T06:32:49;14.00;99.90
5697;DHT22;2873;50.966;7.210;2022-09-16T06:35:15;14.00;99.90
5697;DHT22;2873;50.966;7.210;2022-09-16T06:37:40;14.10;99.90
5697;DHT22;2873;50.966;7.210;2022-09-16T06:40:06;14.20;99.90
5697;DHT22;2873;50.966;7.210;2022-09-16T06:42:32;14.20;99.90
5697;DHT22;2873;50.966;7.210;2022-09-16T06:44:57;14.30;99.90
5697;DHT22;2873;50.966;7.210;2022-09-16T06:47:23;14.40;99.90
5697;DHT22;2873;50.966;7.210;2022-09-16T06:49:48;14.30;99.90
5697;DHT22;2873;50.966;7.210;2022-09-16T06:52:14;14.40;99.90
5697;DHT22;2873;50.966;7.210;2022-09-16T06:54:39;14.50;99.90
5697;DHT22;2873;50.966;7.210;2022-09-16T06:57:05;14.60;99.90
5697;DHT22;2873;50.966;7.210;2022-09-16T06:59:30;14.60;99.90
5697;DHT22;2873;50.966;7.210;2022-09-16T07:01:56;14.60;99.90
5697;DHT22;2873;50.966;7.210;2022-09-16T07:04:22;14.60;99.90
5697;DHT22;2873;50.966;7.210;2022-09-16T07:06:47;14.80;99.90
5697;DHT22;2873;50.966;7.210;2022-09-16T07:09:14;14.80;99.90
5697;DHT22;2873;50.966;7.210;2022-09-16T07:11:40;14.90;99.90
5697;DHT22;2873;50.966;7.210;2022-09-16T07:14:07;14.90;99.90
5697;DHT22;2873;50.966;7.210;2022-09-16T07:16:33;15.00;99.90
5697;DHT22;2873;50.966;7.210;2022-09-16T07:18:59;15.00;99.90
5697;DHT22;2873;50.966;7.210;2022-09-16T07:21:26;15.00;99.90
5697;DHT22;2873;50.966;7.210;2022-09-16T07:23:56;15.00;99.90
5697;DHT22;2873;50.966;7.210;2022-09-16T07:26:27;15.20;99.90
5697;DHT22;2873;50.966;7.210;2022-09-16T07:28:54;15.30;99.90
5697;DHT22;2873;50.966;7.210;2022-09-16T07:31:23;15.40;99.90
5697;DHT22;2873;50.966;7.210;2022-09-16T07:33:50;15.40;99.90
5697;DHT22;2873;50.966;7.210;2022-09-16T07:36:19;15.50;99.90
5697;DHT22;2873;50.966;7.210;2022-09-16T07:38:46;15.50;99.90
5697;DHT22;2873;50.966;7.210;2022-09-16T07:41:14;15.50;99.90
5697;DHT22;2873;50.966;7.210;2022-09-16T07:43:41;15.40;99.90
5697;DHT22;2873;50.966;7.210;2022-09-16T07:46:08;15.40;99.90
5697;DHT22;2873;50.966;7.210;2022-09-16T07:48:35;15.50;99.90
5697;DHT22;2873;50.966;7.210;2022-09-16T07:51:07;15.60;99.90
5697;DHT22;2873;50.966;7.210;2022-09-16T07:53:33;15.60;99.90
5697;DHT22;2873;50.966;7.210;2022-09-16T07:56:07;15.70;99.90
5697;DHT22;2873;50.966;7.210;2022-09-16T07:58:33;15.90;99.90
5697;DHT22;2873;50.966;7.210;2022-09-16T08:00:59;16.10;99.90
5697;DHT22;2873;50.966;7.210;2022-09-16T08:03:24;16.10;99.90
5697;DHT22;2873;50.966;7.210;2022-09-16T08:05:50;16.20;99.90
5697;DHT22;2873;50.966;7.210;2022-09-16T08:08:16;16.20;99.90
5697;DHT22;2873;50.966;7.210;2022-09-16T08:10:42;16.20;99.90
5697;DHT22;2873;50.966;7.210;2022-09-16T08:13:08;16.20;99.90
5697;DHT22;2873;50.966;7.210;2022-09-16T08:15:34;16.30;99.90
5697;DHT22;2873;50.966;7.210;2022-09-16T08:18:00;16.40;99.90
5697;DHT22;2873;50.966;7.210;2022-09-16T08:20:26;16.30;99.90
5697;DHT22;2873;50.966;7.210;2022-09-16T08:22:52;16.60;99.90
5697;DHT22;2873;50.966;7.210;2022-09-16T08:25:18;16.80;99.90
5697;DHT22;2873;50.966;7.210;2022-09-16T08:27:44;17.10;99.90
5697;DHT22;2873;50.966;7.210;2022-09-16T08:30:10;17.30;99.90
5697;DHT22;2873;50.966;7.210;2022-09-16T08:32:36;17.20;99.90
5697;DHT22;2873;50.966;7.210;2022-09-16T08:35:02;17.20;99.90
5697;DHT22;2873;50.966;7.210;2022-09-16T08:37:27;17.30;99.90
5697;DHT22;2873;50.966;7.210;2022-09-16T08:39:53;17.30;99.90
5697;DHT22;2873;50.966;7.210;2022-09-16T08:45:19;17.30;99.90
5697;DHT22;2873;50.966;7.210;2022-09-16T08:50:32;17.30;99.90
5697;DHT22;2873;50.966;7.210;2022-09-16T08:53:02;17.40;99.90
5697;DHT22;2873;50.966;7.210;2022-09-16T08:55:36;17.50;99.90
5697;DHT22;2873;50.966;7.210;2022-09-16T08:58:09;17.70;99.90
5697;DHT22;2873;50.966;7.210;2022-09-16T09:00:38;18.00;99.90
5697;DHT22;2873;50.966;7.210;2022-09-16T09:03:14;18.10;99.90
5697;DHT22;2873;50.966;7.210;2022-09-16T09:05:57;18.40;99.90
5697;DHT22;2873;50.966;7.210;2022-09-16T09:11:13;18.20;99.90
5697;DHT22;2873;50.966;7.210;2022-09-16T09:19:39;18.60;99.90
5697;DHT22;2873;50.966;7.210;2022-09-16T09:22:19;18.70;99.90
5697;DHT22;2873;50.966;7.210;2022-09-16T09:30:36;19.00;99.90
5697;DHT22;2873;50.966;7.210;2022-09-16T09:41:25;19.10;99.90
5697;DHT22;2873;50.966;7.210;2022-09-16T09:44:12;19.40;99.90
5697;DHT22;2873;50.966;7.210;2022-09-16T09:46:47;19.60;99.90
5697;DHT22;2873;50.966;7.210;2022-09-16T09:49:30;19.90;99.90
5697;DHT22;2873;50.966;7.210;2022-09-16T09:54:45;20.60;99.90
5697;DHT22;2873;50.966;7.210;2022-09-16T09:57:38;20.70;99.90
5697;DHT22;2873;50.966;7.210;2022-09-16T10:00:15;21.00;99.90
5697;DHT22;2873;50.966;7.210;2022-09-16T10:02:43;20.60;99.90
5697;DHT22;2873;50.966;7.210;2022-09-16T10:05:25;20.30;99.90
5697;DHT22;2873;50.966;7.210;2022-09-16T10:07:52;19.80;99.90
5697;DHT22;2873;50.966;7.210;2022-09-16T10:10:21;19.40;99.90
5697;DHT22;2873;50.966;7.210;2022-09-16T10:12:48;19.20;99.90
5697;DHT22;2873;50.966;7.210;2022-09-16T10:15:28;19.10;99.90
5697;DHT22;2873;50.966;7.210;2022-09-16T10:17:54;19.00;99.90
5697;DHT22;2873;50.966;7.210;2022-09-16T10:20:30;18.70;99.90
5697;DHT22;2873;50.966;7.210;2022-09-16T10:25:30;18.30;99.90
5697;DHT22;2873;50.966;7.210;2022-09-16T10:27:58;18.10;99.90
5697;DHT22;2873;50.966;7.210;2022-09-16T10:30:27;18.00;99.90
5697;DHT22;2873;50.966;7.210;2022-09-16T10:35:29;17.70;99.90
5697;DHT22;2873;50.966;7.210;2022-09-16T10:40:29;17.40;99.90
5697;DHT22;2873;50.966;7.210;2022-09-16T10:43:03;17.40;99.90
5697;DHT22;2873;50.966;7.210;2022-09-16T10:45:51;17.40;99.90
5697;DHT22;2873;50.966;7.210;2022-09-16T10:48:19;21.00;99.90
5697;DHT22;2873;50.966;7.210;2022-09-16T10:53:33;28.20;99.90
5697;DHT22;2873;50.966;7.210;2022-09-16T10:56:04;30.80;99.90
5697;DHT22;2873;50.966;7.210;2022-09-16T10:58:31;29.40;99.90
5697;DHT22;2873;50.966;7.210;2022-09-16T11:14:34;25.80;99.90
5697;DHT22;2873;50.966;7.210;2022-09-16T11:17:54;26.80;99.90
5697;DHT22;2873;50.966;7.210;2022-09-16T11:31:30;23.50;99.90
5697;DHT22;2873;50.966;7.210;2022-09-16T11:34:41;22.70;99.90
5697;DHT22;2873;50.966;7.210;2022-09-16T11:39:55;21.50;99.90
5697;DHT22;2873;50.966;7.210;2022-09-16T11:42:41;21.00;99.90
5697;DHT22;2873;50.966;7.210;2022-09-16T11:45:15;20.70;99.90
5697;DHT22;2873;50.966;7.210;2022-09-16T11:48:04;20.50;99.90
5697;DHT22;2873;50.966;7.210;2022-09-16T11:50:48;20.10;99.90
5697;DHT22;2873;50.966;7.210;2022-09-16T11:53:30;19.50;99.90
5697;DHT22;2873;50.966;7.210;2022-09-16T11:56:00;19.10;99.90
5697;DHT22;2873;50.966;7.210;2022-09-16T11:58:44;18.90;99.90
5697;DHT22;2873;50.966;7.210;2022-09-16T12:04:16;18.80;99.90
5697;DHT22;2873;50.966;7.210;2022-09-16T12:07:01;18.50;99.90
5697;DHT22;2873;50.966;7.210;2022-09-16T12:09:51;18.20;99.90
5697;DHT22;2873;50.966;7.210;2022-09-16T12:12:22;19.80;99.90
5697;DHT22;2873;50.966;7.210;2022-09-16T12:14:55;22.20;99.90
5697;DHT22;2873;50.966;7.210;2022-09-16T12:17:27;25.40;99.90
5697;DHT22;2873;50.966;7.210;2022-09-16T12:20:02;29.20;99.90
5697;DHT22;2873;50.966;7.210;2022-09-16T12:22:39;31.50;99.90
5697;DHT22;2873;50.966;7.210;2022-09-16T12:28:04;32.10;99.90
5697;DHT22;2873;50.966;7.210;2022-09-16T12:30:41;30.00;99.90
5697;DHT22;2873;50.966;7.210;2022-09-16T12:36:06;26.50;99.90
5697;DHT22;2873;50.966;7.210;2022-09-16T12:38:32;24.90;99.90
5697;DHT22;2873;50.966;7.210;2022-09-16T12:41:23;23.40;99.90
5697;DHT22;2873;50.966;7.210;2022-09-16T12:46:51;21.00;99.90
5697;DHT22;2873;50.966;7.210;2022-09-16T12:52:25;19.00;99.90
5697;DHT22;2873;50.966;7.210;2022-09-16T13:00:27;17.10;99.90
5697;DHT22;2873;50.966;7.210;2022-09-16T13:02:58;16.60;99.90
5697;DHT22;2873;50.966;7.210;2022-09-16T13:05:33;16.10;99.90
5697;DHT22;2873;50.966;7.210;2022-09-16T13:08:04;15.80;99.90
5697;DHT22;2873;50.966;7.210;2022-09-16T13:10:36;15.50;99.90
5697;DHT22;2873;50.966;7.210;2022-09-16T13:13:03;15.20;99.90
5697;DHT22;2873;50.966;7.210;2022-09-16T13:15:37;15.00;99.90
5697;DHT22;2873;50.966;7.210;2022-09-16T13:18:24;14.90;99.90
5697;DHT22;2873;50.966;7.210;2022-09-16T13:20:59;14.90;99.90
5697;DHT22;2873;50.966;7.210;2022-09-16T13:23:29;15.50;99.90
5697;DHT22;2873;50.966;7.210;2022-09-16T13:26:00;18.60;99.90
5697;DHT22;2873;50.966;7.210;2022-09-16T13:28:46;18.80;99.90
5697;DHT22;2873;50.966;7.210;2022-09-16T13:33:41;27.90;99.90
5697;DHT22;2873;50.966;7.210;2022-09-16T13:36:15;26.90;99.90
5697;DHT22;2873;50.966;7.210;2022-09-16T13:38:52;25.90;99.90
5697;DHT22;2873;50.966;7.210;2022-09-16T13:41:50;26.90;99.90
5697;DHT22;2873;50.966;7.210;2022-09-16T13:49:33;30.00;99.90
5697;DHT22;2873;50.966;7.210;2022-09-16T13:52:09;29.20;99.90
5697;DHT22;2873;50.966;7.210;2022-09-16T13:54:41;27.60;99.90
5697;DHT22;2873;50.966;7.210;2022-09-16T14:00:09;28.50;99.90
5697;DHT22;2873;50.966;7.210;2022-09-16T14:05:10;30.80;99.90
5697;DHT22;2873;50.966;7.210;2022-09-16T14:08:47;30.70;99.90
5697;DHT22;2873;50.966;7.210;2022-09-16T14:10:48;30.50;99.90
5697;DHT22;2873;50.966;7.210;2022-09-16T14:13:19;28.40;99.90
5697;DHT22;2873;50.966;7.210;2022-09-16T14:15:51;27.20;99.90
5697;DHT22;2873;50.966;7.210;2022-09-16T14:18:24;27.00;99.90
5697;DHT22;2873;50.966;7.210;2022-09-16T14:21:03;26.10;99.90
5697;DHT22;2873;50.966;7.210;2022-09-16T14:23:31;25.20;99.90
5697;DHT22;2873;50.966;7.210;2022-09-16T14:26:12;23.90;99.90
5697;DHT22;2873;50.966;7.210;2022-09-16T14:28:38;22.80;99.90
5697;DHT22;2873;50.966;7.210;2022-09-16T14:31:11;21.60;99.90
5697;DHT22;2873;50.966;7.210;2022-09-16T14:33:52;20.90;99.90
5697;DHT22;2873;50.966;7.210;2022-09-16T14:36:33;20.10;99.90
5697;DHT22;2873;50.966;7.210;2022-09-16T14:39:03;20.20;99.90
5697;DHT22;2873;50.966;7.210;2022-09-16T14:41:37;19.40;99.90
5697;DHT22;2873;50.966;7.210;2022-09-16T14:44:14;19.30;99.90
5697;DHT22;2873;50.966;7.210;2022-09-16T14:46:44;18.90;99.90
5697;DHT22;2873;50.966;7.210;2022-09-16T14:49:12;20.90;99.90
5697;DHT22;2873;50.966;7.210;2022-09-16T14:51:43;23.00;99.90
5697;DHT22;2873;50.966;7.210;2022-09-16T14:54:16;22.60;99.90
5697;DHT22;2873;50.966;7.210;2022-09-16T14:57:03;21.50;99.90
5697;DHT22;2873;50.966;7.210;2022-09-16T14:59:36;21.30;99.90
5697;DHT22;2873;50.966;7.210;2022-09-16T15:02:25;21.30;99.90
5697;DHT22;2873;50.966;7.210;2022-09-16T15:07:33;22.30;99.90
5697;DHT22;2873;50.966;7.210;2022-09-16T15:10:08;22.10;99.90
5697;DHT22;2873;50.966;7.210;2022-09-16T15:12:50;21.10;99.90
5697;DHT22;2873;50.966;7.210;2022-09-16T15:15:23;20.30;99.90
5697;DHT22;2873;50.966;7.210;2022-09-16T15:17:58;19.70;99.90
5697;DHT22;2873;50.966;7.210;2022-09-16T15:20:26;19.20;99.90
5697;DHT22;2873;50.966;7.210;2022-09-16T15:22:53;18.70;99.90
5697;DHT22;2873;50.966;7.210;2022-09-16T15:25:30;18.40;99.90
5697;DHT22;2873;50.966;7.210;2022-09-16T15:28:06;19.10;99.90
5697;DHT22;2873;50.966;7.210;2022-09-16T15:30:33;19.20;99.90
5697;DHT22;2873;50.966;7.210;2022-09-16T15:32:58;18.90;99.90
5697;DHT22;2873;50.966;7.210;2022-09-16T15:35:26;18.40;99.90
5697;DHT22;2873;50.966;7.210;2022-09-16T15:37:55;18.10;99.90
5697;DHT22;2873;50.966;7.210;2022-09-16T15:45:27;17.80;99.90
5697;DHT22;2873;50.966;7.210;2022-09-16T15:48:05;17.80;99.90
5697;DHT22;2873;50.966;7.210;2022-09-16T15:50:45;17.70;99.90
5697;DHT22;2873;50.966;7.210;2022-09-16T15:53:40;18.20;99.90
5697;DHT22;2873;50.966;7.210;2022-09-16T15:59:31;20.30;99.90
5697;DHT22;2873;50.966;7.210;2022-09-16T16:02:01;19.80;99.90
5697;DHT22;2873;50.966;7.210;2022-09-16T16:04:31;19.60;99.90
5697;DHT22;2873;50.966;7.210;2022-09-16T16:07:02;19.80;99.90
5697;DHT22;2873;50.966;7.210;2022-09-16T16:11:59;18.60;99.90
5697;DHT22;2873;50.966;7.210;2022-09-16T16:14:30;18.20;99.90
5697;DHT22;2873;50.966;7.210;2022-09-16T16:19:35;17.40;99.90
5697;DHT22;2873;50.966;7.210;2022-09-16T16:22:04;17.20;99.90
5697;DHT22;2873;50.966;7.210;2022-09-16T16:24:30;17.30;99.90
5697;DHT22;2873;50.966;7.210;2022-09-16T16:26:56;17.10;99.90
5697;DHT22;2873;50.966;7.210;2022-09-16T16:29:22;17.00;99.90
5697;DHT22;2873;50.966;7.210;2022-09-16T16:34:37;16.50;99.90
5697;DHT22;2873;50.966;7.210;2022-09-16T16:37:03;16.30;99.90
5697;DHT22;2873;50.966;7.210;2022-09-16T16:39:29;16.20;99.90
5697;DHT22;2873;50.966;7.210;2022-09-16T16:41:54;15.90;99.90
5697;DHT22;2873;50.966;7.210;2022-09-16T16:44:22;16.00;99.90
5697;DHT22;2873;50.966;7.210;2022-09-16T16:46:49;15.90;99.90
5697;DHT22;2873;50.966;7.210;2022-09-16T16:49:15;15.80;99.90
5697;DHT22;2873;50.966;7.210;2022-09-16T16:51:40;15.60;99.90
5697;DHT22;2873;50.966;7.210;2022-09-16T16:54:06;15.60;99.90
5697;DHT22;2873;50.966;7.210;2022-09-16T16:56:31;15.50;99.90
5697;DHT22;2873;50.966;7.210;2022-09-16T16:58:57;15.40;99.90
5697;DHT22;2873;50.966;7.210;2022-09-16T17:01:23;15.40;99.90
5697;DHT22;2873;50.966;7.210;2022-09-16T17:03:48;15.30;99.90
5697;DHT22;2873;50.966;7.210;2022-09-16T17:06:15;15.30;99.90
5697;DHT22;2873;50.966;7.210;2022-09-16T17:08:41;15.20;99.90
5697;DHT22;2873;50.966;7.210;2022-09-16T17:11:17;15.10;99.90
5697;DHT22;2873;50.966;7.210;2022-09-16T17:13:49;15.00;99.90
5697;DHT22;2873;50.966;7.210;2022-09-16T17:16:22;15.00;99.90
5697;DHT22;2873;50.966;7.210;2022-09-16T17:18:49;14.90;99.90
5697;DHT22;2873;50.966;7.210;2022-09-16T17:21:18;14.80;99.90
5697;DHT22;2873;50.966;7.210;2022-09-16T17:23:44;14.70;99.90
5697;DHT22;2873;50.966;7.210;2022-09-16T17:26:10;14.60;99.90
5697;DHT22;2873;50.966;7.210;2022-09-16T17:28:38;14.40;99.90
5697;DHT22;2873;50.966;7.210;2022-09-16T17:31:12;14.30;99.90
5697;DHT22;2873;50.966;7.210;2022-09-16T17:33:39;14.10;99.90
5697;DHT22;2873;50.966;7.210;2022-09-16T17:36:06;14.00;99.90
5697;DHT22;2873;50.966;7.210;2022-09-16T17:38:33;13.90;99.90
5697;DHT22;2873;50.966;7.210;2022-09-16T17:41:01;13.80;99.90
5697;DHT22;2873;50.966;7.210;2022-09-16T17:43:27;13.70;99.90
5697;DHT22;2873;50.966;7.210;2022-09-16T17:45:52;13.60;99.90
5697;DHT22;2873;50.966;7.210;2022-09-16T17:48:19;13.50;99.90
5697;DHT22;2873;50.966;7.210;2022-09-16T17:50:49;13.40;99.90
5697;DHT22;2873;50.966;7.210;2022-09-16T17:53:15;13.40;99.90
5697;DHT22;2873;50.966;7.210;2022-09-16T17:55:40;13.30;99.90
5697;DHT22;2873;50.966;7.210;2022-09-16T17:58:06;13.20;99.90
5697;DHT22;2873;50.966;7.210;2022-09-16T18:00:32;13.20;99.90
5697;DHT22;2873;50.966;7.210;2022-09-16T18:02:57;13.10;99.90
5697;DHT22;2873;50.966;7.210;2022-09-16T18:05:23;13.10;99.90
5697;DHT22;2873;50.966;7.210;2022-09-16T18:07:48;13.00;99.90
5697;DHT22;2873;50.966;7.210;2022-09-16T18:10:14;12.90;99.90
5697;DHT22;2873;50.966;7.210;2022-09-16T18:12:39;12.80;99.90
5697;DHT22;2873;50.966;7.210;2022-09-16T18:15:05;12.80;99.90
5697;DHT22;2873;50.966;7.210;2022-09-16T18:17:31;12.80;99.90
5697;DHT22;2873;50.966;7.210;2022-09-16T18:19:56;12.70;99.90
5697;DHT22;2873;50.966;7.210;2022-09-16T18:22:22;12.70;99.90
5697;DHT22;2873;50.966;7.210;2022-09-16T18:24:47;12.70;99.90
5697;DHT22;2873;50.966;7.210;2022-09-16T18:27:13;12.70;99.90
5697;DHT22;2873;50.966;7.210;2022-09-16T18:29:38;12.60;99.90
5697;DHT22;2873;50.966;7.210;2022-09-16T18:32:06;12.60;99.90
5697;DHT22;2873;50.966;7.210;2022-09-16T18:34:32;12.70;99.90
5697;DHT22;2873;50.966;7.210;2022-09-16T18:36:57;12.70;99.90
5697;DHT22;2873;50.966;7.210;2022-09-16T18:39:23;12.70;99.90
5697;DHT22;2873;50.966;7.210;2022-09-16T18:41:48;12.70;99.90
5697;DHT22;2873;50.966;7.210;2022-09-16T18:44:17;12.60;99.90
5697;DHT22;2873;50.966;7.210;2022-09-16T18:46:44;12.60;99.90
5697;DHT22;2873;50.966;7.210;2022-09-16T18:49:11;12.50;99.90
5697;DHT22;2873;50.966;7.210;2022-09-16T18:51:48;12.40;99.90
5697;DHT22;2873;50.966;7.210;2022-09-16T18:54:16;12.40;99.90
5697;DHT22;2873;50.966;7.210;2022-09-16T18:56:43;12.30;99.90
5697;DHT22;2873;50.966;7.210;2022-09-16T18:59:14;12.20;99.90
5697;DHT22;2873;50.966;7.210;2022-09-16T19:01:42;12.20;99.90
5697;DHT22;2873;50.966;7.210;2022-09-16T19:04:09;12.20;99.90
5697;DHT22;2873;50.966;7.210;2022-09-16T19:06:38;12.20;99.90
5697;DHT22;2873;50.966;7.210;2022-09-16T19:09:05;12.20;99.90
5697;DHT22;2873;50.966;7.210;2022-09-16T19:11:34;12.30;99.90
5697;DHT22;2873;50.966;7.210;2022-09-16T19:14:01;12.20;99.90
5697;DHT22;2873;50.966;7.210;2022-09-16T19:16:27;12.20;99.90